Waynesville, GA (31566)

3:07 PM EST on February 13, 2016 (GMT -0500)
Timber Landing | | Change Station
CLOSE
Current Station
Personal Weather Station
Location: Brunswick, GA
Elevation: 43 ft
Nearby Weather Stations
Active Advisory: Flood Warning

Elev 43 ft 31.19 °N, 81.61 °W | Updated 17 seconds ago

Clear
Clear
57.9 °F
Feels Like 57.9 °F
N
6.9
Wind Variable Wind from SW
Gusts 11.4 mph

Today
High -- | Low -- °F
--% Chance of Precip.
Yesterday
High -- | Low -- °F
Precip. -- in
Pressure 30.26 in
Visibility 10.0 miles
Clouds Clear
Dew Point 28 °F
Humidity 32%
Rainfall 0.00 in
Snow Depth Not available.
7:10 AM 6:12 PM
Waxing Crescent, 33% visible
METAR KBQK 131955Z AUTO 31003KT 10SM CLR 14/M04 A3026 RMK AO2
Pressure 30.26 in
Visibility 10.0 miles
Clouds Clear
Dew Point 28 °F
Humidity 32%
Rainfall 0.00 in
Snow Depth Not available.
7:10 AM 6:12 PM
Waxing Crescent, 33% visible
METAR KBQK 131955Z AUTO 31003KT 10SM CLR 14/M04 A3026 RMK AO2

10-Day Weather Forecast

Almanac

Astronomy

Feb. 13, 2016 Rise Set
Actual Time
Civil Twilight
Nautical Twilight
Astronomical Twilight
Moon
Length of Visible Light
Length of Day
Tomorrow will be .
, % of the Moon is Illuminated

Today's Extremes

State Highs State Lows

Community

WunderPhotos

Upload Photos

1,892,653 photos uploaded!

WunderBlog® & News

Nearby

Air Quality

  Air Quality AQ Index Pollutant
Not available.

Snow Depth

Station Depth Elevation

Earthquake Activity

City Distance Mag. Time & Date
Minimum magnitude displayed is 2.5.

Coastal Water Temperatures

Place Temperature

Stations

Nearby Weather Stations

Station Location Temp. Windchill Dew Point Humidity Wind Precip. Elev Updated Type
                   

Watches & Warnings

Flood Warning
Issued: 9:04 AM EST Feb. 13, 2016 – National Weather Service

The Flood Warning continues for
the Satilla river at Atkinson.
* Until further notice... or until the warning is cancelled.
* At 8:45 am Saturday the stage was 16.9 feet.
* Minor flooding is occurring and minor flooding is forecast.
* Flood stage is 13.0 feet.
* Forecast... the river will continue to fall to a stage of 16.2 feet
by tomorrow morning.
* Impact... at 14.0 feet... River Rock Road begins to experience
flooding across the Road.





               Fld observed 7am EST / 8am EDT forecast
location stg stg day time sun Mon Tue Wed Thu

Satilla
Atkinson 13 16.9 Sat 09 am 16.2 15.5 14.7 13.9 13.1




Lat... Lon 3128 8191 3114 8190 3114 8183 3129 8184